Hickman, TN (38567)

4:06 PM CDT on April 21, 2015 (GMT -0500)
KTNBUFFA2 | | Change Station
CLOSE
Current Station
Personal Weather Station
Location: Buffalo Valley, TN
Elevation: 564 ft
Nearby Weather Stations

Elev 564 ft 36.13 °N, 85.79 °W | Updated 3 seconds ago

Partly Cloudy
Partly Cloudy
71.6 °F
Feels Like 72 °F
N
5.4
Wind Variable Wind from North
Gusts 5.4 mph

Today
High -- | Low -- °F
--% Chance of Precip.
Yesterday
High -- | Low -- °F
Precip. -- in
6:02 AM 7:22 PM
Waxing Crescent, 12% visible
Pressure 29.94 in
Visibility 10.0 miles
Clouds Scattered Clouds 9000 ft
Heat Index 72 °F
Dew Point 12 °F
Humidity 10%
Rainfall 0.01 in
Snow Depth Not available.
UV 4 out of 12
Pollen 10.10 out of 12
Air Quality Not available.
Flu Activity Sporadic
METAR KMQY 212056Z 26009G21KT 10SM SCT090 21/01 A2992 RMK AO2 58024 T02110005 SLP139

More Conditions Fewer Conditions

Pressure 29.94 in
Visibility 10.0 miles
Clouds Scattered Clouds 9000 ft
Heat Index 72 °F
Dew Point 12 °F
Humidity 10%
Rainfall 0.01 in
Snow Depth Not available.
UV 4 out of 12
Pollen 10.10 out of 12
Air Quality Not available.
Flu Activity Sporadic
METAR KMQY 212056Z 26009G21KT 10SM SCT090 21/01 A2992 RMK AO2 58024 T02110005 SLP139

More Conditions Fewer Conditions

10-Day Weather Forecast

Almanac

Astronomy

Apr. 21, 2015 Rise Set
Actual Time
Civil Twilight
Nautical Twilight
Astronomical Twilight
Moon
Length of Visible Light
Length of Day
Tomorrow will be .
, % of the Moon is Illuminated

Today's Extremes

State Highs State Lows

Community

WunderPhotos

Upload Photos

1,815,540 photos uploaded!

WunderBlogs® & News

Nearby

Air Quality

  Air Quality AQ Index Pollutant
Not available.

Snow Depth

Station Depth Elevation

Earthquake Activity

City Distance Mag. Time & Date
Minimum magnitude displayed is 2.5.

Coastal Water Temperatures

Place Temperature

Stations

Nearby Weather Stations

Station Location Temp. Windchill Dew Point Humidity Wind Precip. Elev Updated Type